createdAt,value
2023-06-29T00:00:32.754Z,2.93
2023-06-29T00:03:35.411Z,2.92
2023-06-29T00:06:38.409Z,2.95
2023-06-29T00:09:40.992Z,2.78
2023-06-29T00:12:43.515Z,3.13
2023-06-29T00:15:46.764Z,2.90
2023-06-29T00:18:51.140Z,3.10
2023-06-29T00:21:53.928Z,3.35
2023-06-29T00:24:58.033Z,3.03
2023-06-29T00:28:00.489Z,3.00
2023-06-29T00:31:03.036Z,2.60
2023-06-29T00:34:05.489Z,3.20
2023-06-29T00:37:09.003Z,3.17
2023-06-29T00:40:12.235Z,3.25
2023-06-29T00:43:14.922Z,3.70
2023-06-29T00:46:20.556Z,3.70
2023-06-29T00:49:23.264Z,2.88
2023-06-29T00:52:26.091Z,3.00
2023-06-29T00:55:28.761Z,3.08
2023-06-29T00:58:32.031Z,3.00
2023-06-29T01:01:34.610Z,3.90
2023-06-29T01:04:38.627Z,4.03
2023-06-29T01:08:01.541Z,3.20
2023-06-29T01:11:05.094Z,3.45
2023-06-29T01:14:12.037Z,3.00
2023-06-29T01:17:17.825Z,2.67
2023-06-29T01:20:21.007Z,3.40
2023-06-29T01:23:28.189Z,3.38
2023-06-29T01:26:30.961Z,4.07
2023-06-29T01:29:33.542Z,3.38
2023-06-29T01:32:36.704Z,3.20
2023-06-29T01:35:39.240Z,3.30
2023-06-29T01:38:46.967Z,2.70
2023-06-29T01:41:50.055Z,2.92
2023-06-29T01:44:54.823Z,2.90
2023-06-29T01:47:59.272Z,3.37
2023-06-29T01:51:02.496Z,2.90
2023-06-29T01:54:05.467Z,2.67
2023-06-29T01:57:08.828Z,2.38
2023-06-29T02:00:12.977Z,3.17
2023-06-29T02:03:18.502Z,2.43
2023-06-29T02:06:21.132Z,2.90
2023-06-29T02:09:24.317Z,3.28
2023-06-29T02:12:26.798Z,3.70
2023-06-29T02:15:29.327Z,4.07
2023-06-29T02:18:38.872Z,3.47
2023-06-29T02:21:42.832Z,3.53
2023-06-29T02:24:46.852Z,3.60
2023-06-29T02:27:49.347Z,3.38
2023-06-29T02:30:51.745Z,3.20
2023-06-29T02:33:54.908Z,4.30
2023-06-29T02:36:57.475Z,3.08
2023-06-29T02:40:01.869Z,3.00
2023-06-29T02:43:04.566Z,3.10
2023-06-29T02:46:07.202Z,3.40
2023-06-29T02:49:13.263Z,4.10
2023-06-29T02:52:15.951Z,3.67
2023-06-29T02:55:18.622Z,4.30
2023-06-29T02:58:21.109Z,3.45
2023-06-29T03:01:26.547Z,4.00
2023-06-29T03:04:29.845Z,3.60
2023-06-29T03:07:33.784Z,3.40
2023-06-29T03:10:37.588Z,3.95
2023-06-29T03:13:40.076Z,3.90
2023-06-29T03:16:43.327Z,3.63
2023-06-29T03:19:46.290Z,3.60
2023-06-29T03:22:48.831Z,3.03
2023-06-29T03:25:51.363Z,3.80
2023-06-29T03:28:53.876Z,3.85
2023-06-29T03:31:56.297Z,3.97
2023-06-29T03:34:58.753Z,3.43
2023-06-29T03:38:01.171Z,3.67
2023-06-29T03:41:03.641Z,3.67
2023-06-29T03:44:06.047Z,2.90
2023-06-29T03:47:08.510Z,3.30
2023-06-29T03:50:11.257Z,2.90
2023-06-29T03:53:14.065Z,2.63
2023-06-29T03:56:16.493Z,2.58
2023-06-29T03:59:18.936Z,2.92
2023-06-29T04:02:21.515Z,3.92
2023-06-29T04:05:24.029Z,3.50
2023-06-29T04:08:26.513Z,2.80
2023-06-29T04:11:29.185Z,3.92
2023-06-29T04:14:31.714Z,3.20
2023-06-29T04:17:34.184Z,3.08
2023-06-29T04:20:37.914Z,3.03
2023-06-29T04:23:40.397Z,2.80
2023-06-29T04:26:42.876Z,2.35
2023-06-29T04:29:45.600Z,2.10
2023-06-29T04:32:48.449Z,2.63
2023-06-29T04:35:50.988Z,2.30
2023-06-29T04:38:54.614Z,2.33
2023-06-29T04:42:02.253Z,3.20
2023-06-29T04:45:04.962Z,2.78
2023-06-29T04:48:07.633Z,2.63
2023-06-29T04:51:11.421Z,3.23
2023-06-29T04:54:14.080Z,2.95
2023-06-29T04:57:16.549Z,3.15
2023-06-29T05:00:21.113Z,3.17
2023-06-29T05:03:25.806Z,3.92
2023-06-29T05:06:28.493Z,3.13
2023-06-29T05:09:30.995Z,3.53
2023-06-29T05:12:33.907Z,3.20
2023-06-29T05:15:36.538Z,2.85
2023-06-29T05:18:38.934Z,2.80
2023-06-29T05:21:41.947Z,2.67
2023-06-29T05:24:44.455Z,2.70
2023-06-29T05:27:46.912Z,2.65
2023-06-29T05:30:49.393Z,2.55
2023-06-29T05:33:51.811Z,2.90
2023-06-29T05:36:54.277Z,2.10
2023-06-29T05:39:58.031Z,2.33
2023-06-29T05:43:00.794Z,2.30
2023-06-29T05:46:04.062Z,1.52
2023-06-29T05:49:06.748Z,1.90
2023-06-29T05:52:09.281Z,2.20
2023-06-29T05:55:11.739Z,1.83
2023-06-29T05:58:14.297Z,2.10
2023-06-29T06:01:16.873Z,2.08
2023-06-29T06:04:19.503Z,2.17
2023-06-29T06:07:29.870Z,2.00
2023-06-29T06:10:32.971Z,1.90
2023-06-29T06:13:35.427Z,1.70
2023-06-29T06:16:38.121Z,1.83
2023-06-29T06:19:40.741Z,1.90
2023-06-29T06:22:43.229Z,1.67
2023-06-29T06:25:45.697Z,1.58
2023-06-29T06:28:48.226Z,2.10
2023-06-29T06:31:50.729Z,1.27
2023-06-29T06:34:53.252Z,1.67
2023-06-29T06:37:55.976Z,1.40
2023-06-29T06:40:58.477Z,1.42
2023-06-29T06:44:00.886Z,1.50
2023-06-29T06:47:03.534Z,1.83
2023-06-29T06:50:06.754Z,1.30
2023-06-29T06:53:09.229Z,1.47
2023-06-29T06:56:11.777Z,1.80
2023-06-29T06:59:14.445Z,1.35
2023-06-29T07:02:17.126Z,1.20
2023-06-29T07:05:20.131Z,1.40
2023-06-29T07:08:22.797Z,1.37
2023-06-29T07:11:25.260Z,1.48
2023-06-29T07:14:27.954Z,1.17
2023-06-29T07:17:31.858Z,1.60
2023-06-29T07:26:45.003Z,1.60
2023-06-29T07:29:48.434Z,1.85
2023-06-29T07:32:50.971Z,1.67
2023-06-29T07:35:53.425Z,1.85
2023-06-29T07:38:56.674Z,1.60
2023-06-29T07:41:59.170Z,1.42
2023-06-29T07:45:01.652Z,1.40
2023-06-29T07:48:04.313Z,1.42
2023-06-29T07:51:06.970Z,1.88
2023-06-29T07:54:09.968Z,1.37
2023-06-29T08:00:18.497Z,1.23
2023-06-29T08:03:24.677Z,1.23
2023-06-29T08:09:33.561Z,1.20
2023-06-29T08:12:36.017Z,1.48
2023-06-29T08:15:38.429Z,1.48
2023-06-29T08:18:40.971Z,1.13
2023-06-29T08:21:43.438Z,1.70
2023-06-29T08:24:45.832Z,1.43
2023-06-29T08:27:48.370Z,1.80
2023-06-29T08:30:50.894Z,2.45
2023-06-29T08:33:53.406Z,1.70
2023-06-29T08:36:56.013Z,1.48
2023-06-29T08:39:58.449Z,1.87
2023-06-29T08:43:01.109Z,2.05
2023-06-29T08:46:04.109Z,2.55
2023-06-29T08:49:09.377Z,2.22
2023-06-29T08:52:16.892Z,1.80
2023-06-29T08:55:20.112Z,1.97
2023-06-29T08:58:25.644Z,2.13
2023-06-29T09:01:28.863Z,1.90
2023-06-29T09:04:31.525Z,1.80
2023-06-29T09:07:35.317Z,2.30
2023-06-29T09:10:39.433Z,1.57
2023-06-29T09:13:41.925Z,2.20
2023-06-29T09:16:54.559Z,1.90
2023-06-29T09:19:58.139Z,1.67
2023-06-29T09:23:04.308Z,1.90
2023-06-29T09:26:08.285Z,1.70
2023-06-29T09:29:10.727Z,1.88
2023-06-29T09:32:15.121Z,2.10
2023-06-29T09:35:23.147Z,2.20
2023-06-29T09:38:25.559Z,2.03
2023-06-29T09:41:28.090Z,1.70
2023-06-29T09:44:30.620Z,2.03
2023-06-29T09:50:38.853Z,1.83
2023-06-29T09:53:41.342Z,2.28
2023-06-29T09:56:43.851Z,2.30
2023-06-29T09:59:46.808Z,1.77
2023-06-29T10:02:49.354Z,1.77
2023-06-29T10:05:55.173Z,1.80
2023-06-29T10:09:00.725Z,1.45
2023-06-29T10:12:04.838Z,1.67
2023-06-29T10:15:10.965Z,1.88
2023-06-29T10:18:18.095Z,2.38
2023-06-29T10:21:21.107Z,2.10
2023-06-29T10:24:28.836Z,2.65
2023-06-29T10:27:34.308Z,2.00
2023-06-29T10:30:47.702Z,2.08
2023-06-29T10:33:50.492Z,1.83
2023-06-29T10:36:53.433Z,2.30
2023-06-29T10:39:57.705Z,2.30
2023-06-29T10:43:00.163Z,2.10
2023-06-29T10:46:02.596Z,2.38
2023-06-29T10:49:07.723Z,1.75
2023-06-29T10:52:10.115Z,2.00
2023-06-29T10:55:15.900Z,1.90
2023-06-29T10:58:32.049Z,2.10
2023-06-29T11:01:34.441Z,2.50
2023-06-29T11:04:40.952Z,1.90
2023-06-29T11:07:44.852Z,2.22
2023-06-29T11:10:47.704Z,1.80
2023-06-29T11:13:50.276Z,2.13
2023-06-29T11:16:55.970Z,2.00
2023-06-29T11:19:58.988Z,2.15
2023-06-29T11:23:02.530Z,1.55
2023-06-29T11:26:05.202Z,1.90
2023-06-29T11:29:10.772Z,2.30
2023-06-29T11:32:14.078Z,2.05
2023-06-29T11:35:16.647Z,2.20
2023-06-29T11:38:19.913Z,2.60
2023-06-29T11:41:23.099Z,2.50
2023-06-29T11:44:26.547Z,2.37
2023-06-29T11:47:33.370Z,2.35
2023-06-29T11:50:38.264Z,2.33
2023-06-29T11:53:40.822Z,2.13
2023-06-29T11:56:44.204Z,2.20
2023-06-29T11:59:47.121Z,1.83
2023-06-29T12:02:49.696Z,2.47
2023-06-29T12:05:53.809Z,2.72
2023-06-29T12:08:56.743Z,2.00
2023-06-29T12:12:00.469Z,2.30
2023-06-29T12:15:13.852Z,2.00
2023-06-29T12:18:17.415Z,2.53
2023-06-29T12:21:20.693Z,2.60
2023-06-29T12:24:25.332Z,2.35
2023-06-29T12:27:27.787Z,1.80
2023-06-29T12:30:30.194Z,2.43
2023-06-29T12:33:34.147Z,2.03
2023-06-29T12:36:36.581Z,2.10
2023-06-29T12:39:39.027Z,1.92
2023-06-29T12:42:41.623Z,2.35
2023-06-29T12:45:44.041Z,1.80
2023-06-29T12:48:46.853Z,1.92
2023-06-29T12:51:49.299Z,2.45
2023-06-29T12:54:53.460Z,1.80
2023-06-29T12:57:55.884Z,2.20
2023-06-29T13:00:58.377Z,1.83
2023-06-29T13:04:00.918Z,2.17
2023-06-29T13:07:03.842Z,2.30
2023-06-29T13:10:06.574Z,1.95
2023-06-29T13:13:09.051Z,2.15
2023-06-29T13:16:11.543Z,2.30
2023-06-29T13:19:14.051Z,2.47
2023-06-29T13:22:19.543Z,2.00
2023-06-29T13:25:22.141Z,2.03
2023-06-29T13:28:24.587Z,2.00
2023-06-29T13:31:27.276Z,2.17
2023-06-29T13:34:31.529Z,2.15
2023-06-29T13:37:35.305Z,2.42
2023-06-29T13:40:37.936Z,1.70
2023-06-29T13:43:40.360Z,1.88
2023-06-29T13:46:46.727Z,2.47
2023-06-29T13:49:49.915Z,1.63
2023-06-29T13:52:52.492Z,1.85
2023-06-29T13:55:55.034Z,1.63
2023-06-29T13:58:57.439Z,2.15
2023-06-29T14:02:00.266Z,2.00
2023-06-29T14:05:02.736Z,1.83
2023-06-29T14:08:05.587Z,2.05
2023-06-29T14:11:07.984Z,1.85
2023-06-29T14:14:10.990Z,1.88
2023-06-29T14:17:13.919Z,2.00
2023-06-29T14:20:16.511Z,2.00
2023-06-29T14:23:19.847Z,1.90
2023-06-29T14:26:22.969Z,1.60
2023-06-29T14:29:25.372Z,1.85
2023-06-29T14:32:27.911Z,1.73
2023-06-29T14:35:31.326Z,1.90
2023-06-29T14:38:35.407Z,2.40
2023-06-29T14:41:37.821Z,1.58
2023-06-29T14:44:42.883Z,1.98
2023-06-29T14:47:47.101Z,1.77
2023-06-29T14:50:50.319Z,1.90
2023-06-29T14:53:52.824Z,1.63
2023-06-29T14:56:55.247Z,1.75
2023-06-29T14:59:57.787Z,1.92
2023-06-29T15:03:00.448Z,1.50
2023-06-29T15:06:02.981Z,1.88
2023-06-29T15:09:06.401Z,1.80
2023-06-29T15:12:09.416Z,1.58
2023-06-29T15:15:13.998Z,1.88
2023-06-29T15:18:16.664Z,1.80
2023-06-29T15:21:19.191Z,1.15
2023-06-29T15:24:21.682Z,1.70
2023-06-29T15:27:24.166Z,1.60
2023-06-29T15:30:26.623Z,1.55
2023-06-29T15:33:29.018Z,1.60
2023-06-29T15:36:32.419Z,1.50
2023-06-29T15:39:36.360Z,1.33
2023-06-29T15:42:39.292Z,2.00
2023-06-29T15:45:41.726Z,1.85
2023-06-29T15:48:44.432Z,1.80
2023-06-29T15:51:47.369Z,1.90
2023-06-29T15:54:49.888Z,1.90
2023-06-29T15:57:52.303Z,1.30
2023-06-29T16:00:55.359Z,1.60
2023-06-29T16:03:58.020Z,1.50
2023-06-29T16:07:00.562Z,1.63
2023-06-29T16:10:03.111Z,1.50
2023-06-29T16:13:05.499Z,1.50
2023-06-29T16:16:07.924Z,1.25
2023-06-29T16:19:15.792Z,1.10
2023-06-29T16:22:18.385Z,1.40
2023-06-29T16:25:24.770Z,1.53
2023-06-29T16:28:27.259Z,1.52
2023-06-29T16:31:29.826Z,1.55
2023-06-29T16:34:33.024Z,1.70
2023-06-29T16:37:35.414Z,1.63
2023-06-29T16:40:37.853Z,1.60
2023-06-29T16:43:40.388Z,1.63
2023-06-29T16:46:42.907Z,1.38
2023-06-29T16:49:45.332Z,1.65
2023-06-29T16:52:47.764Z,1.65
2023-06-29T16:55:50.330Z,1.40
2023-06-29T16:58:52.919Z,1.30
2023-06-29T17:01:57.240Z,1.60
2023-06-29T17:05:00.082Z,1.33
2023-06-29T17:08:02.942Z,3.17
2023-06-29T17:11:05.422Z,11.47
2023-06-29T17:14:08.044Z,22.08
2023-06-29T17:17:10.594Z,11.52
2023-06-29T17:20:16.289Z,8.98
2023-06-29T17:23:21.742Z,7.35
2023-06-29T17:26:24.266Z,2.67
2023-06-29T17:29:26.949Z,3.90
2023-06-29T17:32:29.773Z,4.78
2023-06-29T17:35:32.305Z,5.05
2023-06-29T17:38:34.804Z,3.25
2023-06-29T17:41:37.278Z,1.90
2023-06-29T17:44:39.697Z,1.60
2023-06-29T17:47:42.226Z,1.88
2023-06-29T17:50:44.687Z,1.77
2023-06-29T17:53:48.111Z,1.85
2023-06-29T17:56:50.728Z,2.17
2023-06-29T17:59:53.116Z,1.55
2023-06-29T18:02:55.672Z,1.75
2023-06-29T18:05:58.283Z,2.10
2023-06-29T18:09:00.659Z,1.90
2023-06-29T18:12:03.285Z,1.83
2023-06-29T18:15:07.628Z,2.40
2023-06-29T18:18:10.244Z,1.92
2023-06-29T18:21:12.816Z,1.73
2023-06-29T18:24:16.334Z,2.38
2023-06-29T18:27:19.336Z,2.40
2023-06-29T18:30:21.840Z,2.90
2023-06-29T18:33:24.287Z,2.38
2023-06-29T18:36:26.873Z,2.40
2023-06-29T18:39:29.556Z,2.10
2023-06-29T18:42:31.996Z,2.40
2023-06-29T18:45:34.489Z,2.30
2023-06-29T18:48:37.934Z,3.53
2023-06-29T18:51:40.662Z,3.35
2023-06-29T18:54:44.647Z,2.90
2023-06-29T18:57:47.128Z,2.60
2023-06-29T19:00:49.616Z,3.13
2023-06-29T19:03:52.127Z,3.25
2023-06-29T19:06:54.805Z,2.90
2023-06-29T19:09:57.199Z,3.25
2023-06-29T19:12:59.579Z,2.90
2023-06-29T19:16:04.019Z,3.22
2023-06-29T19:19:06.816Z,4.47
2023-06-29T19:22:09.299Z,4.00
2023-06-29T19:25:11.716Z,3.60
2023-06-29T19:28:16.153Z,3.50
2023-06-29T19:31:18.672Z,3.03
2023-06-29T19:34:21.402Z,3.53
2023-06-29T19:37:26.319Z,3.22
2023-06-29T19:40:28.796Z,3.38
2023-06-29T19:43:32.160Z,2.90
2023-06-29T19:46:34.641Z,2.90
2023-06-29T19:49:37.126Z,3.03
2023-06-29T19:52:39.558Z,3.08
2023-06-29T19:55:42.087Z,3.78
2023-06-29T19:58:44.668Z,3.30
2023-06-29T20:01:47.136Z,2.70
2023-06-29T20:04:49.626Z,2.90
2023-06-29T20:07:52.079Z,3.45
2023-06-29T20:10:54.506Z,3.33
2023-06-29T20:13:56.947Z,2.27
2023-06-29T20:16:59.464Z,2.38
2023-06-29T20:20:01.967Z,3.10
2023-06-29T20:23:04.519Z,2.47
2023-06-29T20:26:07.323Z,1.77
2023-06-29T20:29:09.763Z,2.63
2023-06-29T20:32:12.425Z,2.38
2023-06-29T20:35:14.891Z,2.50
2023-06-29T20:38:17.338Z,2.15
2023-06-29T20:41:19.816Z,2.22
2023-06-29T20:44:23.267Z,2.40
2023-06-29T20:47:26.101Z,2.20
2023-06-29T20:50:28.559Z,2.78
2023-06-29T20:53:30.974Z,2.50
2023-06-29T20:56:33.718Z,3.10
2023-06-29T20:59:36.252Z,2.77
2023-06-29T21:02:39.206Z,2.40
2023-06-29T21:05:41.772Z,2.50
2023-06-29T21:08:44.242Z,2.70
2023-06-29T21:11:46.805Z,2.58
2023-06-29T21:14:49.560Z,2.63
2023-06-29T21:17:52.266Z,2.63
2023-06-29T21:20:54.976Z,3.00
2023-06-29T21:23:57.551Z,2.80
2023-06-29T21:27:00.228Z,2.95
2023-06-29T21:30:03.223Z,2.60
2023-06-29T21:33:06.088Z,2.50
2023-06-29T21:36:08.978Z,2.92
2023-06-29T21:39:11.361Z,2.25
2023-06-29T21:42:13.957Z,2.17
2023-06-29T21:45:16.571Z,2.20
2023-06-29T21:48:19.090Z,2.30
2023-06-29T21:51:22.239Z,2.53
2023-06-29T21:54:24.700Z,2.70
2023-06-29T21:57:27.085Z,2.55
2023-06-29T22:00:29.496Z,2.67
2023-06-29T22:03:31.982Z,2.13
2023-06-29T22:06:34.444Z,2.55
2023-06-29T22:09:36.863Z,2.42
2023-06-29T22:12:45.263Z,2.28
2023-06-29T22:15:47.850Z,2.40
2023-06-29T22:18:51.828Z,2.63
2023-06-29T22:21:54.557Z,2.47
2023-06-29T22:24:57.169Z,2.03
2023-06-29T22:27:59.572Z,2.58
2023-06-29T22:31:02.126Z,2.70
2023-06-29T22:34:04.561Z,2.60
2023-06-29T22:37:07.037Z,2.42
2023-06-29T22:40:29.384Z,2.63
2023-06-29T22:43:32.569Z,2.65
2023-06-29T22:46:35.118Z,2.30
2023-06-29T22:49:37.624Z,2.60
2023-06-29T22:52:40.121Z,2.40
2023-06-29T22:55:42.696Z,3.35
2023-06-29T22:58:45.439Z,2.13
2023-06-29T23:01:50.477Z,2.40
2023-06-29T23:04:53.628Z,2.90
2023-06-29T23:07:56.201Z,2.50
2023-06-29T23:10:58.685Z,2.55
2023-06-29T23:14:01.188Z,2.67
2023-06-29T23:17:06.806Z,3.07
2023-06-29T23:20:14.254Z,2.72
2023-06-29T23:23:16.787Z,2.97
2023-06-29T23:26:20.506Z,2.97
2023-06-29T23:29:22.986Z,2.97
2023-06-29T23:32:25.450Z,2.50
2023-06-29T23:35:27.896Z,3.00
2023-06-29T23:38:30.332Z,3.30
2023-06-29T23:41:34.775Z,3.08
2023-06-29T23:44:41.842Z,3.28
2023-06-29T23:47:44.561Z,2.63
2023-06-29T23:50:48.531Z,2.58
2023-06-29T23:53:50.966Z,2.33
2023-06-29T23:56:53.553Z,2.67
2023-06-29T23:59:56.026Z,2.38
